Terminal Aerodrome Forecast
Issued by NWS

Home | Current Version | Previous Version | Text Only | Print | Product List | Glossary On
Versions: 1 2 3 4 5 6 7 8 9 10 11 12 13
000
FTUS46 KSTO 040520
TAFSAC
TAF
KSAC 040520Z 0406/0506 18005KT P6SM SKC
     FM041900 20006KT P6SM SKC
     FM042300 20010G18KT P6SM FEW250
     FM050400 20008KT P6SM SKC=

USA.gov is the U.S. government's official web portal to all federal, state and local government web resources and services.